sensor_id;sensor_type;location;lat;lon;timestamp;temperature;humidity
10536;DHT22;5316;49.538;8.352;2023-04-09T00:01:22;10.10;1.00
10536;DHT22;5316;49.538;8.352;2023-04-09T00:03:49;10.10;1.00
10536;DHT22;5316;49.538;8.352;2023-04-09T00:06:18;10.10;1.00
10536;DHT22;5316;49.538;8.352;2023-04-09T00:08:46;10.10;1.00
10536;DHT22;5316;49.538;8.352;2023-04-09T00:11:13;10.10;1.00
10536;DHT22;5316;49.538;8.352;2023-04-09T00:13:44;10.00;1.00
10536;DHT22;5316;49.538;8.352;2023-04-09T00:16:31;9.90;1.00
10536;DHT22;5316;49.538;8.352;2023-04-09T00:18:58;9.90;1.00
10536;DHT22;5316;49.538;8.352;2023-04-09T00:21:28;9.90;1.00
10536;DHT22;5316;49.538;8.352;2023-04-09T00:23:57;10.00;1.00
10536;DHT22;5316;49.538;8.352;2023-04-09T00:26:24;9.90;1.00
10536;DHT22;5316;49.538;8.352;2023-04-09T00:28:51;9.90;1.00
10536;DHT22;5316;49.538;8.352;2023-04-09T00:31:24;9.90;1.00
10536;DHT22;5316;49.538;8.352;2023-04-09T00:33:52;9.80;1.00
10536;DHT22;5316;49.538;8.352;2023-04-09T00:36:20;9.80;1.00
10536;DHT22;5316;49.538;8.352;2023-04-09T00:38:55;9.80;1.00
10536;DHT22;5316;49.538;8.352;2023-04-09T00:41:23;9.80;1.00
10536;DHT22;5316;49.538;8.352;2023-04-09T00:43:51;9.80;1.00
10536;DHT22;5316;49.538;8.352;2023-04-09T00:46:18;9.80;1.00
10536;DHT22;5316;49.538;8.352;2023-04-09T00:48:45;9.80;1.00
10536;DHT22;5316;49.538;8.352;2023-04-09T00:51:12;9.70;1.00
10536;DHT22;5316;49.538;8.352;2023-04-09T00:53:39;9.70;1.00
10536;DHT22;5316;49.538;8.352;2023-04-09T00:56:11;9.70;1.00
10536;DHT22;5316;49.538;8.352;2023-04-09T00:58:39;9.60;1.00
10536;DHT22;5316;49.538;8.352;2023-04-09T01:01:08;9.60;1.00
10536;DHT22;5316;49.538;8.352;2023-04-09T01:03:36;9.60;1.00
10536;DHT22;5316;49.538;8.352;2023-04-09T01:06:06;9.50;1.00
10536;DHT22;5316;49.538;8.352;2023-04-09T01:08:44;9.50;1.00
10536;DHT22;5316;49.538;8.352;2023-04-09T01:11:27;9.50;1.00
10536;DHT22;5316;49.538;8.352;2023-04-09T01:14:02;9.40;1.00
10536;DHT22;5316;49.538;8.352;2023-04-09T01:16:33;9.40;1.00
10536;DHT22;5316;49.538;8.352;2023-04-09T01:19:12;9.40;1.00
10536;DHT22;5316;49.538;8.352;2023-04-09T01:21:45;9.30;1.00
10536;DHT22;5316;49.538;8.352;2023-04-09T01:24:20;9.30;1.00
10536;DHT22;5316;49.538;8.352;2023-04-09T01:27:01;9.20;1.00
10536;DHT22;5316;49.538;8.352;2023-04-09T01:29:31;9.10;1.00
10536;DHT22;5316;49.538;8.352;2023-04-09T01:32:14;9.10;1.00
10536;DHT22;5316;49.538;8.352;2023-04-09T01:34:45;9.10;1.00
10536;DHT22;5316;49.538;8.352;2023-04-09T01:37:15;9.00;1.00
10536;DHT22;5316;49.538;8.352;2023-04-09T01:40:12;9.00;1.00
10536;DHT22;5316;49.538;8.352;2023-04-09T01:42:47;9.10;1.00
10536;DHT22;5316;49.538;8.352;2023-04-09T01:45:17;9.00;1.00
10536;DHT22;5316;49.538;8.352;2023-04-09T01:47:45;9.00;1.00
10536;DHT22;5316;49.538;8.352;2023-04-09T01:50:13;9.00;1.00
10536;DHT22;5316;49.538;8.352;2023-04-09T01:52:41;9.00;1.00
10536;DHT22;5316;49.538;8.352;2023-04-09T01:55:09;9.00;1.00
10536;DHT22;5316;49.538;8.352;2023-04-09T01:57:36;9.00;1.00
10536;DHT22;5316;49.538;8.352;2023-04-09T02:00:04;8.90;1.00
10536;DHT22;5316;49.538;8.352;2023-04-09T02:02:39;8.90;1.00
10536;DHT22;5316;49.538;8.352;2023-04-09T02:05:10;8.90;1.00
10536;DHT22;5316;49.538;8.352;2023-04-09T02:07:41;8.90;2.30
10536;DHT22;5316;49.538;8.352;2023-04-09T02:10:10;8.90;3.60
10536;DHT22;5316;49.538;8.352;2023-04-09T02:12:43;8.90;4.20
10536;DHT22;5316;49.538;8.352;2023-04-09T02:15:13;8.90;4.50
10536;DHT22;5316;49.538;8.352;2023-04-09T02:17:42;8.90;4.50
10536;DHT22;5316;49.538;8.352;2023-04-09T02:20:10;8.80;4.30
10536;DHT22;5316;49.538;8.352;2023-04-09T02:22:38;8.90;2.90
10536;DHT22;5316;49.538;8.352;2023-04-09T02:25:11;8.90;1.00
10536;DHT22;5316;49.538;8.352;2023-04-09T02:27:38;8.90;1.00
10536;DHT22;5316;49.538;8.352;2023-04-09T02:30:07;8.90;1.00
10536;DHT22;5316;49.538;8.352;2023-04-09T02:32:34;8.80;1.00
10536;DHT22;5316;49.538;8.352;2023-04-09T02:35:02;8.90;1.60
10536;DHT22;5316;49.538;8.352;2023-04-09T02:37:29;8.90;4.80
10536;DHT22;5316;49.538;8.352;2023-04-09T02:39:57;8.90;6.10
10536;DHT22;5316;49.538;8.352;2023-04-09T02:42:24;8.90;6.70
10536;DHT22;5316;49.538;8.352;2023-04-09T02:44:51;8.80;10.60
10536;DHT22;5316;49.538;8.352;2023-04-09T02:47:18;8.80;12.60
10536;DHT22;5316;49.538;8.352;2023-04-09T02:49:45;8.80;16.40
10536;DHT22;5316;49.538;8.352;2023-04-09T02:52:14;8.80;17.50
10536;DHT22;5316;49.538;8.352;2023-04-09T02:54:41;8.80;14.80
10536;DHT22;5316;49.538;8.352;2023-04-09T02:57:09;8.80;15.70
10536;DHT22;5316;49.538;8.352;2023-04-09T02:59:54;8.80;14.90
10536;DHT22;5316;49.538;8.352;2023-04-09T03:02:21;8.70;21.60
10536;DHT22;5316;49.538;8.352;2023-04-09T03:04:51;8.60;35.90
10536;DHT22;5316;49.538;8.352;2023-04-09T03:07:19;8.60;40.00
10536;DHT22;5316;49.538;8.352;2023-04-09T03:09:47;8.50;45.10
10536;DHT22;5316;49.538;8.352;2023-04-09T03:12:14;8.50;48.50
10536;DHT22;5316;49.538;8.352;2023-04-09T03:14:44;8.60;47.30
10536;DHT22;5316;49.538;8.352;2023-04-09T03:17:11;8.50;43.50
10536;DHT22;5316;49.538;8.352;2023-04-09T03:19:38;8.60;48.20
10536;DHT22;5316;49.538;8.352;2023-04-09T03:22:06;8.60;52.10
10536;DHT22;5316;49.538;8.352;2023-04-09T03:24:34;8.60;57.30
10536;DHT22;5316;49.538;8.352;2023-04-09T03:27:01;8.60;69.10
10536;DHT22;5316;49.538;8.352;2023-04-09T03:29:28;8.50;75.10
10536;DHT22;5316;49.538;8.352;2023-04-09T03:31:56;8.50;78.00
10536;DHT22;5316;49.538;8.352;2023-04-09T03:34:25;8.50;83.60
10536;DHT22;5316;49.538;8.352;2023-04-09T03:36:52;8.40;89.40
10536;DHT22;5316;49.538;8.352;2023-04-09T03:39:19;8.40;89.10
10536;DHT22;5316;49.538;8.352;2023-04-09T03:41:47;8.40;92.70
10536;DHT22;5316;49.538;8.352;2023-04-09T03:44:14;8.30;95.20
10536;DHT22;5316;49.538;8.352;2023-04-09T03:46:41;8.30;98.20
10536;DHT22;5316;49.538;8.352;2023-04-09T03:49:08;8.20;99.90
10536;DHT22;5316;49.538;8.352;2023-04-09T03:51:35;8.20;99.90
10536;DHT22;5316;49.538;8.352;2023-04-09T03:54:02;8.10;99.90
10536;DHT22;5316;49.538;8.352;2023-04-09T03:56:29;8.10;99.90
10536;DHT22;5316;49.538;8.352;2023-04-09T03:58:58;8.10;99.90
10536;DHT22;5316;49.538;8.352;2023-04-09T04:01:25;8.00;99.90
10536;DHT22;5316;49.538;8.352;2023-04-09T04:03:53;7.90;99.90
10536;DHT22;5316;49.538;8.352;2023-04-09T04:06:20;7.90;99.90
10536;DHT22;5316;49.538;8.352;2023-04-09T04:08:47;7.80;99.90
10536;DHT22;5316;49.538;8.352;2023-04-09T04:11:14;7.70;99.90
10536;DHT22;5316;49.538;8.352;2023-04-09T04:13:41;7.70;99.90
10536;DHT22;5316;49.538;8.352;2023-04-09T04:16:10;7.60;99.90
10536;DHT22;5316;49.538;8.352;2023-04-09T04:18:37;7.60;99.90
10536;DHT22;5316;49.538;8.352;2023-04-09T04:21:05;7.50;99.90
10536;DHT22;5316;49.538;8.352;2023-04-09T04:23:37;7.60;99.90
10536;DHT22;5316;49.538;8.352;2023-04-09T04:26:14;7.50;99.90
10536;DHT22;5316;49.538;8.352;2023-04-09T04:28:41;7.50;99.90
10536;DHT22;5316;49.538;8.352;2023-04-09T04:31:10;7.40;99.90
10536;DHT22;5316;49.538;8.352;2023-04-09T04:33:39;7.40;99.90
10536;DHT22;5316;49.538;8.352;2023-04-09T04:36:08;7.40;99.90
10536;DHT22;5316;49.538;8.352;2023-04-09T04:38:35;7.50;99.90
10536;DHT22;5316;49.538;8.352;2023-04-09T04:41:03;7.40;99.90
10536;DHT22;5316;49.538;8.352;2023-04-09T04:43:30;7.40;99.90
10536;DHT22;5316;49.538;8.352;2023-04-09T04:45:58;7.40;99.90
10536;DHT22;5316;49.538;8.352;2023-04-09T04:48:27;7.40;99.90
10536;DHT22;5316;49.538;8.352;2023-04-09T04:50:56;7.30;99.90
10536;DHT22;5316;49.538;8.352;2023-04-09T04:53:23;7.40;99.90
10536;DHT22;5316;49.538;8.352;2023-04-09T04:55:55;7.40;99.90
10536;DHT22;5316;49.538;8.352;2023-04-09T04:58:22;7.40;99.90
10536;DHT22;5316;49.538;8.352;2023-04-09T05:00:49;7.40;99.90
10536;DHT22;5316;49.538;8.352;2023-04-09T05:03:16;7.40;99.90
10536;DHT22;5316;49.538;8.352;2023-04-09T05:05:45;7.40;99.90
10536;DHT22;5316;49.538;8.352;2023-04-09T05:08:12;7.30;99.90
10536;DHT22;5316;49.538;8.352;2023-04-09T05:10:40;7.30;99.90
10536;DHT22;5316;49.538;8.352;2023-04-09T05:13:07;7.40;99.90
10536;DHT22;5316;49.538;8.352;2023-04-09T05:15:37;7.40;99.90
10536;DHT22;5316;49.538;8.352;2023-04-09T05:18:05;7.40;99.90
10536;DHT22;5316;49.538;8.352;2023-04-09T05:20:33;7.40;99.90
10536;DHT22;5316;49.538;8.352;2023-04-09T05:23:02;7.40;99.90
10536;DHT22;5316;49.538;8.352;2023-04-09T05:25:30;7.40;99.90
10536;DHT22;5316;49.538;8.352;2023-04-09T05:27:58;7.40;99.90
10536;DHT22;5316;49.538;8.352;2023-04-09T05:30:25;7.40;99.90
10536;DHT22;5316;49.538;8.352;2023-04-09T05:32:52;7.40;99.90
10536;DHT22;5316;49.538;8.352;2023-04-09T05:35:20;7.50;99.90
10536;DHT22;5316;49.538;8.352;2023-04-09T05:37:48;7.50;99.90
10536;DHT22;5316;49.538;8.352;2023-04-09T05:40:16;7.50;99.90
10536;DHT22;5316;49.538;8.352;2023-04-09T05:42:43;7.50;99.90
10536;DHT22;5316;49.538;8.352;2023-04-09T05:45:11;7.50;99.90
10536;DHT22;5316;49.538;8.352;2023-04-09T05:47:38;7.60;99.90
10536;DHT22;5316;49.538;8.352;2023-04-09T05:50:06;7.60;99.90
10536;DHT22;5316;49.538;8.352;2023-04-09T05:52:33;7.60;99.90
10536;DHT22;5316;49.538;8.352;2023-04-09T05:55:00;7.60;99.90
10536;DHT22;5316;49.538;8.352;2023-04-09T05:57:29;7.70;99.90
10536;DHT22;5316;49.538;8.352;2023-04-09T05:59:56;7.80;99.90
10536;DHT22;5316;49.538;8.352;2023-04-09T06:02:24;7.90;99.90
10536;DHT22;5316;49.538;8.352;2023-04-09T06:04:52;7.90;99.90
10536;DHT22;5316;49.538;8.352;2023-04-09T06:07:20;8.00;99.90
10536;DHT22;5316;49.538;8.352;2023-04-09T06:09:51;8.00;99.90
10536;DHT22;5316;49.538;8.352;2023-04-09T06:12:24;8.00;99.90
10536;DHT22;5316;49.538;8.352;2023-04-09T06:14:59;8.00;99.90
10536;DHT22;5316;49.538;8.352;2023-04-09T06:17:33;8.10;99.90
10536;DHT22;5316;49.538;8.352;2023-04-09T06:20:06;8.10;99.90
10536;DHT22;5316;49.538;8.352;2023-04-09T06:22:35;8.10;99.90
10536;DHT22;5316;49.538;8.352;2023-04-09T06:25:14;8.10;99.90
10536;DHT22;5316;49.538;8.352;2023-04-09T06:27:42;8.10;99.90
10536;DHT22;5316;49.538;8.352;2023-04-09T06:30:16;8.10;99.90
10536;DHT22;5316;49.538;8.352;2023-04-09T06:32:50;8.10;99.90
10536;DHT22;5316;49.538;8.352;2023-04-09T06:35:21;8.10;99.90
10536;DHT22;5316;49.538;8.352;2023-04-09T06:37:49;8.20;99.90
10536;DHT22;5316;49.538;8.352;2023-04-09T06:40:18;8.30;99.90
10536;DHT22;5316;49.538;8.352;2023-04-09T06:42:50;8.40;96.80
10536;DHT22;5316;49.538;8.352;2023-04-09T06:45:22;8.40;96.30
10536;DHT22;5316;49.538;8.352;2023-04-09T06:48:04;8.40;85.50
10536;DHT22;5316;49.538;8.352;2023-04-09T06:50:35;8.40;90.00
10536;DHT22;5316;49.538;8.352;2023-04-09T06:53:09;8.50;86.20
10536;DHT22;5316;49.538;8.352;2023-04-09T06:55:38;8.50;75.80
10536;DHT22;5316;49.538;8.352;2023-04-09T06:58:11;8.50;67.70
10536;DHT22;5316;49.538;8.352;2023-04-09T07:00:50;8.60;67.70
10536;DHT22;5316;49.538;8.352;2023-04-09T07:03:18;8.60;62.30
10536;DHT22;5316;49.538;8.352;2023-04-09T07:06:00;8.70;45.00
10536;DHT22;5316;49.538;8.352;2023-04-09T07:08:29;8.70;39.00
10536;DHT22;5316;49.538;8.352;2023-04-09T07:10:58;8.70;42.10
10536;DHT22;5316;49.538;8.352;2023-04-09T07:13:27;8.70;56.90
10536;DHT22;5316;49.538;8.352;2023-04-09T07:15:55;8.80;56.70
10536;DHT22;5316;49.538;8.352;2023-04-09T07:18:24;8.80;35.70
10536;DHT22;5316;49.538;8.352;2023-04-09T07:20:54;8.80;34.10
10536;DHT22;5316;49.538;8.352;2023-04-09T07:26:15;9.00;30.10
10536;DHT22;5316;49.538;8.352;2023-04-09T07:28:42;9.10;22.70
10536;DHT22;5316;49.538;8.352;2023-04-09T07:31:10;9.00;23.90
10536;DHT22;5316;49.538;8.352;2023-04-09T07:33:40;9.10;16.20
10536;DHT22;5316;49.538;8.352;2023-04-09T07:36:09;9.20;18.50
10536;DHT22;5316;49.538;8.352;2023-04-09T07:38:46;9.30;8.80
10536;DHT22;5316;49.538;8.352;2023-04-09T07:41:30;9.40;9.10
10536;DHT22;5316;49.538;8.352;2023-04-09T07:46:34;9.60;1.00
10536;DHT22;5316;49.538;8.352;2023-04-09T07:49:12;9.70;1.00
10536;DHT22;5316;49.538;8.352;2023-04-09T07:51:41;9.80;1.00
10536;DHT22;5316;49.538;8.352;2023-04-09T07:57:20;10.00;1.00
10536;DHT22;5316;49.538;8.352;2023-04-09T07:59:51;10.10;1.00
10536;DHT22;5316;49.538;8.352;2023-04-09T08:02:23;10.20;1.00
10536;DHT22;5316;49.538;8.352;2023-04-09T08:04:52;10.40;1.00
10536;DHT22;5316;49.538;8.352;2023-04-09T08:07:23;10.50;1.00
10536;DHT22;5316;49.538;8.352;2023-04-09T08:09:52;10.60;1.00
10536;DHT22;5316;49.538;8.352;2023-04-09T08:12:23;10.70;1.00
10536;DHT22;5316;49.538;8.352;2023-04-09T08:15:11;10.70;1.00
10536;DHT22;5316;49.538;8.352;2023-04-09T08:17:50;10.80;1.00
10536;DHT22;5316;49.538;8.352;2023-04-09T08:20:19;10.90;1.00
10536;DHT22;5316;49.538;8.352;2023-04-09T08:22:46;10.90;1.00
10536;DHT22;5316;49.538;8.352;2023-04-09T08:25:20;10.90;1.00
10536;DHT22;5316;49.538;8.352;2023-04-09T08:27:47;10.80;1.00
10536;DHT22;5316;49.538;8.352;2023-04-09T08:30:17;10.70;1.00
10536;DHT22;5316;49.538;8.352;2023-04-09T08:32:44;10.70;1.00
10536;DHT22;5316;49.538;8.352;2023-04-09T08:35:22;10.70;1.00
10536;DHT22;5316;49.538;8.352;2023-04-09T08:37:57;10.80;1.00
10536;DHT22;5316;49.538;8.352;2023-04-09T08:40:25;10.80;1.00
10536;DHT22;5316;49.538;8.352;2023-04-09T08:46:09;10.90;1.00
10536;DHT22;5316;49.538;8.352;2023-04-09T08:48:42;11.00;1.00
10536;DHT22;5316;49.538;8.352;2023-04-09T08:51:27;11.00;1.00
10536;DHT22;5316;49.538;8.352;2023-04-09T08:54:06;11.00;1.00
10536;DHT22;5316;49.538;8.352;2023-04-09T08:57:10;11.10;1.00
10536;DHT22;5316;49.538;8.352;2023-04-09T08:59:25;11.20;1.00
10536;DHT22;5316;49.538;8.352;2023-04-09T09:02:08;11.20;1.00
10536;DHT22;5316;49.538;8.352;2023-04-09T09:04:44;11.30;1.00
10536;DHT22;5316;49.538;8.352;2023-04-09T09:07:27;11.30;1.00
10536;DHT22;5316;49.538;8.352;2023-04-09T09:10:04;11.20;1.00
10536;DHT22;5316;49.538;8.352;2023-04-09T09:12:36;11.20;1.00
10536;DHT22;5316;49.538;8.352;2023-04-09T09:40:55;11.90;1.00
10536;DHT22;5316;49.538;8.352;2023-04-09T11:43:53;15.50;1.00
10536;DHT22;5316;49.538;8.352;2023-04-09T11:47:02;15.70;1.00
10536;DHT22;5316;49.538;8.352;2023-04-09T11:50:05;15.60;1.00
10536;DHT22;5316;49.538;8.352;2023-04-09T11:59:55;15.70;1.00
10536;DHT22;5316;49.538;8.352;2023-04-09T15:40:08;25.50;99.90
10536;DHT22;5316;49.538;8.352;2023-04-09T15:51:32;24.60;99.90
10536;DHT22;5316;49.538;8.352;2023-04-09T16:27:46;25.60;99.90
10536;DHT22;5316;49.538;8.352;2023-04-09T16:51:44;25.60;99.90
10536;DHT22;5316;49.538;8.352;2023-04-09T16:55:17;25.60;99.90
10536;DHT22;5316;49.538;8.352;2023-04-09T17:11:11;25.10;99.90
10536;DHT22;5316;49.538;8.352;2023-04-09T17:12:35;24.50;99.90
10536;DHT22;5316;49.538;8.352;2023-04-09T17:15:59;23.60;99.90
10536;DHT22;5316;49.538;8.352;2023-04-09T17:22:52;22.50;99.90
10536;DHT22;5316;49.538;8.352;2023-04-09T19:54:47;12.80;1.00
10536;DHT22;5316;49.538;8.352;2023-04-09T19:58:22;12.80;1.00
10536;DHT22;5316;49.538;8.352;2023-04-09T20:01:29;12.70;1.00
10536;DHT22;5316;49.538;8.352;2023-04-09T20:05:45;12.70;1.00
10536;DHT22;5316;49.538;8.352;2023-04-09T20:07:54;12.60;1.00
10536;DHT22;5316;49.538;8.352;2023-04-09T20:14:18;12.50;1.00
10536;DHT22;5316;49.538;8.352;2023-04-09T20:17:42;12.40;1.00
10536;DHT22;5316;49.538;8.352;2023-04-09T20:23:44;12.30;1.00
10536;DHT22;5316;49.538;8.352;2023-04-09T20:27:01;12.30;1.00
10536;DHT22;5316;49.538;8.352;2023-04-09T20:30:18;12.30;1.00
10536;DHT22;5316;49.538;8.352;2023-04-09T20:33:17;12.30;1.00
10536;DHT22;5316;49.538;8.352;2023-04-09T20:36:01;12.20;1.00
10536;DHT22;5316;49.538;8.352;2023-04-09T20:42:11;12.20;1.00
10536;DHT22;5316;49.538;8.352;2023-04-09T20:45:06;12.10;1.00
10536;DHT22;5316;49.538;8.352;2023-04-09T20:48:16;12.10;1.00
10536;DHT22;5316;49.538;8.352;2023-04-09T20:51:13;12.10;1.00
10536;DHT22;5316;49.538;8.352;2023-04-09T20:54:11;12.00;1.00
10536;DHT22;5316;49.538;8.352;2023-04-09T20:57:05;12.00;1.00
10536;DHT22;5316;49.538;8.352;2023-04-09T21:00:17;12.00;1.00
10536;DHT22;5316;49.538;8.352;2023-04-09T21:06:54;11.90;1.00
10536;DHT22;5316;49.538;8.352;2023-04-09T21:09:59;11.90;1.00
10536;DHT22;5316;49.538;8.352;2023-04-09T21:12:58;11.90;1.00
10536;DHT22;5316;49.538;8.352;2023-04-09T21:16:11;11.80;1.00
10536;DHT22;5316;49.538;8.352;2023-04-09T21:22:45;11.80;1.00
10536;DHT22;5316;49.538;8.352;2023-04-09T21:25:39;11.70;1.00
10536;DHT22;5316;49.538;8.352;2023-04-09T21:28:47;11.70;1.00
10536;DHT22;5316;49.538;8.352;2023-04-09T21:31:46;11.80;1.00
10536;DHT22;5316;49.538;8.352;2023-04-09T21:48:05;11.80;1.00
10536;DHT22;5316;49.538;8.352;2023-04-09T21:50:34;11.60;1.00
10536;DHT22;5316;49.538;8.352;2023-04-09T21:53:01;11.60;1.00
10536;DHT22;5316;49.538;8.352;2023-04-09T21:55:28;11.60;1.00
10536;DHT22;5316;49.538;8.352;2023-04-09T21:57:56;11.60;1.00
10536;DHT22;5316;49.538;8.352;2023-04-09T22:00:23;11.50;1.00
10536;DHT22;5316;49.538;8.352;2023-04-09T22:02:50;11.50;1.00
10536;DHT22;5316;49.538;8.352;2023-04-09T22:05:19;11.50;1.00
10536;DHT22;5316;49.538;8.352;2023-04-09T22:07:46;11.40;1.00
10536;DHT22;5316;49.538;8.352;2023-04-09T22:10:13;11.40;1.00
10536;DHT22;5316;49.538;8.352;2023-04-09T22:12:40;11.40;1.00
10536;DHT22;5316;49.538;8.352;2023-04-09T22:15:08;11.40;1.00
10536;DHT22;5316;49.538;8.352;2023-04-09T22:17:36;11.30;1.00
10536;DHT22;5316;49.538;8.352;2023-04-09T22:20:05;11.40;1.00
10536;DHT22;5316;49.538;8.352;2023-04-09T22:22:42;11.20;1.00
